sensor_id;sensor_type;location;lat;lon;timestamp;P1;durP1;ratioP1;P2;durP2;ratioP2
48522;SDS011;34315;50.150;11.070;2022-08-20T00:02:12;7.47;;;5.18;;
48522;SDS011;34315;50.150;11.070;2022-08-20T00:07:13;7.32;;;5.53;;
48522;SDS011;34315;50.150;11.070;2022-08-20T00:12:15;7.53;;;5.63;;
48522;SDS011;34315;50.150;11.070;2022-08-20T00:17:15;6.95;;;5.00;;
48522;SDS011;34315;50.150;11.070;2022-08-20T00:22:16;9.40;;;5.45;;
48522;SDS011;34315;50.150;11.070;2022-08-20T00:27:16;6.28;;;4.53;;
48522;SDS011;34315;50.150;11.070;2022-08-20T00:32:17;8.48;;;5.03;;
48522;SDS011;34315;50.150;11.070;2022-08-20T00:37:17;7.75;;;4.63;;
48522;SDS011;34315;50.150;11.070;2022-08-20T00:42:18;10.15;;;4.90;;
48522;SDS011;34315;50.150;11.070;2022-08-20T00:47:18;6.72;;;5.55;;
48522;SDS011;34315;50.150;11.070;2022-08-20T00:52:19;8.07;;;5.55;;
48522;SDS011;34315;50.150;11.070;2022-08-20T00:57:22;7.00;;;5.05;;
48522;SDS011;34315;50.150;11.070;2022-08-20T01:02:25;7.00;;;5.50;;
48522;SDS011;34315;50.150;11.070;2022-08-20T01:07:27;10.85;;;5.88;;
48522;SDS011;34315;50.150;11.070;2022-08-20T01:12:33;11.20;;;6.28;;
48522;SDS011;34315;50.150;11.070;2022-08-20T01:17:34;9.73;;;5.40;;
48522;SDS011;34315;50.150;11.070;2022-08-20T01:28:17;9.13;;;5.55;;
48522;SDS011;34315;50.150;11.070;2022-08-20T01:33:20;7.32;;;5.75;;
48522;SDS011;34315;50.150;11.070;2022-08-20T01:38:21;6.82;;;5.60;;
48522;SDS011;34315;50.150;11.070;2022-08-20T01:43:22;7.50;;;6.15;;
48522;SDS011;34315;50.150;11.070;2022-08-20T01:48:23;8.73;;;6.53;;
48522;SDS011;34315;50.150;11.070;2022-08-20T01:53:25;8.48;;;6.90;;
48522;SDS011;34315;50.150;11.070;2022-08-20T01:58:29;10.32;;;7.18;;
48522;SDS011;34315;50.150;11.070;2022-08-20T02:03:30;9.38;;;7.35;;
48522;SDS011;34315;50.150;11.070;2022-08-20T02:08:31;7.90;;;6.70;;
48522;SDS011;34315;50.150;11.070;2022-08-20T02:13:32;9.93;;;6.95;;
48522;SDS011;34315;50.150;11.070;2022-08-20T02:18:33;9.98;;;6.82;;
48522;SDS011;34315;50.150;11.070;2022-08-20T02:23:33;8.20;;;7.03;;
48522;SDS011;34315;50.150;11.070;2022-08-20T02:28:34;8.63;;;6.13;;
48522;SDS011;34315;50.150;11.070;2022-08-20T02:33:34;7.00;;;4.93;;
48522;SDS011;34315;50.150;11.070;2022-08-20T02:38:35;6.05;;;4.47;;
48522;SDS011;34315;50.150;11.070;2022-08-20T02:43:38;5.80;;;4.75;;
48522;SDS011;34315;50.150;11.070;2022-08-20T02:48:38;7.35;;;5.00;;
48522;SDS011;34315;50.150;11.070;2022-08-20T02:53:39;7.22;;;5.40;;
48522;SDS011;34315;50.150;11.070;2022-08-20T02:58:41;6.45;;;5.35;;
48522;SDS011;34315;50.150;11.070;2022-08-20T03:03:42;7.55;;;5.93;;
48522;SDS011;34315;50.150;11.070;2022-08-20T03:08:43;6.13;;;5.20;;
48522;SDS011;34315;50.150;11.070;2022-08-20T03:13:44;10.10;;;5.57;;
48522;SDS011;34315;50.150;11.070;2022-08-20T03:18:45;7.53;;;5.63;;
48522;SDS011;34315;50.150;11.070;2022-08-20T03:23:45;7.78;;;5.75;;
48522;SDS011;34315;50.150;11.070;2022-08-20T03:28:46;7.90;;;6.20;;
48522;SDS011;34315;50.150;11.070;2022-08-20T03:33:47;9.15;;;5.95;;
48522;SDS011;34315;50.150;11.070;2022-08-20T03:38:47;8.52;;;6.47;;
48522;SDS011;34315;50.150;11.070;2022-08-20T03:43:48;7.70;;;6.07;;
48522;SDS011;34315;50.150;11.070;2022-08-20T03:48:48;7.07;;;5.88;;
48522;SDS011;34315;50.150;11.070;2022-08-20T03:53:49;6.93;;;5.70;;
48522;SDS011;34315;50.150;11.070;2022-08-20T03:58:49;6.53;;;5.30;;
48522;SDS011;34315;50.150;11.070;2022-08-20T04:03:49;8.75;;;6.45;;
48522;SDS011;34315;50.150;11.070;2022-08-20T04:08:50;10.57;;;7.32;;
48522;SDS011;34315;50.150;11.070;2022-08-20T04:13:52;10.20;;;7.00;;
48522;SDS011;34315;50.150;11.070;2022-08-20T04:18:53;8.93;;;6.68;;
48522;SDS011;34315;50.150;11.070;2022-08-20T04:23:53;8.85;;;6.72;;
48522;SDS011;34315;50.150;11.070;2022-08-20T04:28:54;9.48;;;7.60;;
48522;SDS011;34315;50.150;11.070;2022-08-20T04:33:54;8.60;;;6.75;;
48522;SDS011;34315;50.150;11.070;2022-08-20T04:38:55;9.15;;;6.60;;
48522;SDS011;34315;50.150;11.070;2022-08-20T04:43:55;9.35;;;6.00;;
48522;SDS011;34315;50.150;11.070;2022-08-20T04:48:57;7.03;;;5.75;;
48522;SDS011;34315;50.150;11.070;2022-08-20T04:54:00;8.75;;;5.88;;
48522;SDS011;34315;50.150;11.070;2022-08-20T04:59:01;8.40;;;6.10;;
48522;SDS011;34315;50.150;11.070;2022-08-20T05:04:02;9.18;;;6.18;;
48522;SDS011;34315;50.150;11.070;2022-08-20T05:09:02;8.43;;;6.53;;
48522;SDS011;34315;50.150;11.070;2022-08-20T05:14:04;10.82;;;7.18;;
48522;SDS011;34315;50.150;11.070;2022-08-20T05:19:11;8.32;;;6.82;;
48522;SDS011;34315;50.150;11.070;2022-08-20T05:24:12;8.43;;;6.07;;
48522;SDS011;34315;50.150;11.070;2022-08-20T05:29:13;8.55;;;6.40;;
48522;SDS011;34315;50.150;11.070;2022-08-20T05:34:13;7.90;;;6.68;;
48522;SDS011;34315;50.150;11.070;2022-08-20T05:39:14;9.35;;;7.30;;
48522;SDS011;34315;50.150;11.070;2022-08-20T05:44:14;9.85;;;7.15;;
48522;SDS011;34315;50.150;11.070;2022-08-20T05:49:16;9.73;;;7.25;;
48522;SDS011;34315;50.150;11.070;2022-08-20T05:54:19;9.38;;;7.03;;
48522;SDS011;34315;50.150;11.070;2022-08-20T05:59:19;9.02;;;6.80;;
48522;SDS011;34315;50.150;11.070;2022-08-20T06:04:21;10.38;;;7.00;;
48522;SDS011;34315;50.150;11.070;2022-08-20T06:09:25;9.98;;;7.05;;
48522;SDS011;34315;50.150;11.070;2022-08-20T06:14:26;11.00;;;7.88;;
48522;SDS011;34315;50.150;11.070;2022-08-20T06:19:26;9.55;;;7.60;;
48522;SDS011;34315;50.150;11.070;2022-08-20T06:24:27;10.27;;;8.40;;
48522;SDS011;34315;50.150;11.070;2022-08-20T06:29:28;12.50;;;8.27;;
48522;SDS011;34315;50.150;11.070;2022-08-20T06:34:28;12.30;;;9.63;;
48522;SDS011;34315;50.150;11.070;2022-08-20T06:39:29;14.30;;;9.95;;
48522;SDS011;34315;50.150;11.070;2022-08-20T06:44:30;15.38;;;10.73;;
48522;SDS011;34315;50.150;11.070;2022-08-20T06:49:34;16.40;;;11.50;;
48522;SDS011;34315;50.150;11.070;2022-08-20T06:54:35;14.52;;;11.75;;
48522;SDS011;34315;50.150;11.070;2022-08-20T06:59:36;16.35;;;13.15;;
48522;SDS011;34315;50.150;11.070;2022-08-20T07:04:36;17.85;;;13.45;;
48522;SDS011;34315;50.150;11.070;2022-08-20T07:09:37;17.00;;;12.63;;
48522;SDS011;34315;50.150;11.070;2022-08-20T07:14:37;18.98;;;13.70;;
48522;SDS011;34315;50.150;11.070;2022-08-20T07:19:38;15.18;;;12.10;;
48522;SDS011;34315;50.150;11.070;2022-08-20T07:24:38;13.15;;;11.45;;
48522;SDS011;34315;50.150;11.070;2022-08-20T07:29:39;16.02;;;11.48;;
48522;SDS011;34315;50.150;11.070;2022-08-20T07:34:58;15.18;;;10.77;;
48522;SDS011;34315;50.150;11.070;2022-08-20T07:39:58;15.18;;;11.50;;
48522;SDS011;34315;50.150;11.070;2022-08-20T07:44:59;13.60;;;11.13;;
48522;SDS011;34315;50.150;11.070;2022-08-20T07:50:00;14.90;;;11.90;;
48522;SDS011;34315;50.150;11.070;2022-08-20T07:55:01;18.55;;;13.50;;
48522;SDS011;34315;50.150;11.070;2022-08-20T08:00:04;16.45;;;12.48;;
48522;SDS011;34315;50.150;11.070;2022-08-20T08:05:08;20.02;;;14.85;;
48522;SDS011;34315;50.150;11.070;2022-08-20T08:10:14;19.60;;;13.70;;
48522;SDS011;34315;50.150;11.070;2022-08-20T08:15:19;14.75;;;11.68;;
48522;SDS011;34315;50.150;11.070;2022-08-20T08:20:22;16.05;;;12.23;;
48522;SDS011;34315;50.150;11.070;2022-08-20T08:25:23;16.35;;;12.32;;
48522;SDS011;34315;50.150;11.070;2022-08-20T08:30:23;16.27;;;12.80;;
48522;SDS011;34315;50.150;11.070;2022-08-20T08:35:25;14.05;;;11.13;;
48522;SDS011;34315;50.150;11.070;2022-08-20T08:40:25;14.00;;;11.15;;
48522;SDS011;34315;50.150;11.070;2022-08-20T08:45:26;13.73;;;10.82;;
48522;SDS011;34315;50.150;11.070;2022-08-20T08:50:29;13.57;;;10.93;;
48522;SDS011;34315;50.150;11.070;2022-08-20T08:55:31;13.65;;;10.30;;
48522;SDS011;34315;50.150;11.070;2022-08-20T09:00:31;15.20;;;12.23;;
48522;SDS011;34315;50.150;11.070;2022-08-20T09:05:35;13.02;;;11.63;;
48522;SDS011;34315;50.150;11.070;2022-08-20T09:10:40;14.23;;;10.75;;
48522;SDS011;34315;50.150;11.070;2022-08-20T09:15:41;13.85;;;11.23;;
48522;SDS011;34315;50.150;11.070;2022-08-20T09:20:41;14.52;;;11.27;;
48522;SDS011;34315;50.150;11.070;2022-08-20T09:25:42;14.05;;;11.50;;
48522;SDS011;34315;50.150;11.070;2022-08-20T09:30:42;14.45;;;10.68;;
48522;SDS011;34315;50.150;11.070;2022-08-20T09:35:43;13.82;;;11.82;;
48522;SDS011;34315;50.150;11.070;2022-08-20T09:40:45;14.50;;;10.82;;
48522;SDS011;34315;50.150;11.070;2022-08-20T09:45:45;14.82;;;9.85;;
48522;SDS011;34315;50.150;11.070;2022-08-20T09:50:46;16.77;;;11.00;;
48522;SDS011;34315;50.150;11.070;2022-08-20T09:55:51;13.57;;;11.43;;
48522;SDS011;34315;50.150;11.070;2022-08-20T10:00:52;14.68;;;9.98;;
48522;SDS011;34315;50.150;11.070;2022-08-20T10:05:53;15.25;;;11.40;;
48522;SDS011;34315;50.150;11.070;2022-08-20T10:10:53;15.30;;;11.93;;
48522;SDS011;34315;50.150;11.070;2022-08-20T10:15:54;13.65;;;11.40;;
48522;SDS011;34315;50.150;11.070;2022-08-20T10:20:54;14.65;;;11.57;;
48522;SDS011;34315;50.150;11.070;2022-08-20T10:25:54;14.93;;;10.40;;
48522;SDS011;34315;50.150;11.070;2022-08-20T10:30:55;15.55;;;10.63;;
48522;SDS011;34315;50.150;11.070;2022-08-20T10:35:55;15.73;;;10.40;;
48522;SDS011;34315;50.150;11.070;2022-08-20T10:40:56;13.95;;;10.45;;
48522;SDS011;34315;50.150;11.070;2022-08-20T10:45:56;15.70;;;10.90;;
48522;SDS011;34315;50.150;11.070;2022-08-20T10:50:56;14.48;;;10.82;;
48522;SDS011;34315;50.150;11.070;2022-08-20T10:55:57;14.45;;;11.10;;
48522;SDS011;34315;50.150;11.070;2022-08-20T11:00:58;16.95;;;11.60;;
48522;SDS011;34315;50.150;11.070;2022-08-20T11:05:58;12.35;;;10.05;;
48522;SDS011;34315;50.150;11.070;2022-08-20T11:10:58;12.38;;;10.57;;
48522;SDS011;34315;50.150;11.070;2022-08-20T11:15:59;13.82;;;10.88;;
48522;SDS011;34315;50.150;11.070;2022-08-20T11:21:00;14.13;;;11.48;;
48522;SDS011;34315;50.150;11.070;2022-08-20T11:26:01;16.55;;;11.27;;
48522;SDS011;34315;50.150;11.070;2022-08-20T11:31:08;12.27;;;9.98;;
48522;SDS011;34315;50.150;11.070;2022-08-20T11:36:08;12.48;;;10.40;;
48522;SDS011;34315;50.150;11.070;2022-08-20T11:41:09;15.13;;;11.10;;
48522;SDS011;34315;50.150;11.070;2022-08-20T11:46:09;12.02;;;10.00;;
48522;SDS011;34315;50.150;11.070;2022-08-20T11:51:10;15.38;;;10.95;;
48522;SDS011;34315;50.150;11.070;2022-08-20T11:56:11;14.50;;;9.75;;
48522;SDS011;34315;50.150;11.070;2022-08-20T12:01:13;12.45;;;9.80;;
48522;SDS011;34315;50.150;11.070;2022-08-20T12:06:13;13.77;;;9.30;;
48522;SDS011;34315;50.150;11.070;2022-08-20T12:11:14;13.68;;;9.75;;
48522;SDS011;34315;50.150;11.070;2022-08-20T12:16:15;14.32;;;10.20;;
48522;SDS011;34315;50.150;11.070;2022-08-20T12:21:19;10.98;;;9.15;;
48522;SDS011;34315;50.150;11.070;2022-08-20T12:26:19;14.02;;;10.38;;
48522;SDS011;34315;50.150;11.070;2022-08-20T12:31:20;13.15;;;10.60;;
48522;SDS011;34315;50.150;11.070;2022-08-20T12:36:20;13.80;;;10.88;;
48522;SDS011;34315;50.150;11.070;2022-08-20T12:41:20;16.10;;;11.85;;
48522;SDS011;34315;50.150;11.070;2022-08-20T12:46:21;14.82;;;11.65;;
48522;SDS011;34315;50.150;11.070;2022-08-20T12:51:21;12.85;;;10.93;;
48522;SDS011;34315;50.150;11.070;2022-08-20T12:56:22;11.60;;;9.88;;
48522;SDS011;34315;50.150;11.070;2022-08-20T13:01:22;12.10;;;10.02;;
48522;SDS011;34315;50.150;11.070;2022-08-20T13:06:23;15.32;;;10.00;;
48522;SDS011;34315;50.150;11.070;2022-08-20T13:11:23;12.32;;;9.32;;
48522;SDS011;34315;50.150;11.070;2022-08-20T13:16:24;13.10;;;9.88;;
48522;SDS011;34315;50.150;11.070;2022-08-20T13:21:24;12.57;;;9.73;;
48522;SDS011;34315;50.150;11.070;2022-08-20T13:26:25;10.95;;;9.52;;
48522;SDS011;34315;50.150;11.070;2022-08-20T13:31:25;11.15;;;9.23;;
48522;SDS011;34315;50.150;11.070;2022-08-20T13:36:26;12.70;;;10.15;;
48522;SDS011;34315;50.150;11.070;2022-08-20T13:41:26;14.65;;;9.48;;
48522;SDS011;34315;50.150;11.070;2022-08-20T13:46:27;13.63;;;9.23;;
48522;SDS011;34315;50.150;11.070;2022-08-20T13:51:27;11.85;;;9.30;;
48522;SDS011;34315;50.150;11.070;2022-08-20T13:56:28;11.30;;;8.88;;
48522;SDS011;34315;50.150;11.070;2022-08-20T14:01:28;13.10;;;9.52;;
48522;SDS011;34315;50.150;11.070;2022-08-20T14:06:28;12.48;;;9.05;;
48522;SDS011;34315;50.150;11.070;2022-08-20T14:11:30;13.82;;;8.88;;
48522;SDS011;34315;50.150;11.070;2022-08-20T14:16:30;10.50;;;7.45;;
48522;SDS011;34315;50.150;11.070;2022-08-20T14:21:32;13.05;;;8.65;;
48522;SDS011;34315;50.150;11.070;2022-08-20T14:26:32;10.55;;;8.50;;
48522;SDS011;34315;50.150;11.070;2022-08-20T14:31:32;10.90;;;8.30;;
48522;SDS011;34315;50.150;11.070;2022-08-20T14:36:33;8.70;;;7.30;;
48522;SDS011;34315;50.150;11.070;2022-08-20T14:41:33;9.00;;;7.30;;
48522;SDS011;34315;50.150;11.070;2022-08-20T14:46:34;9.05;;;7.50;;
48522;SDS011;34315;50.150;11.070;2022-08-20T14:51:34;9.07;;;7.65;;
48522;SDS011;34315;50.150;11.070;2022-08-20T14:56:36;9.18;;;7.13;;
48522;SDS011;34315;50.150;11.070;2022-08-20T15:01:36;8.32;;;6.32;;
48522;SDS011;34315;50.150;11.070;2022-08-20T15:06:37;8.18;;;5.82;;
48522;SDS011;34315;50.150;11.070;2022-08-20T15:11:37;6.10;;;5.00;;
48522;SDS011;34315;50.150;11.070;2022-08-20T15:16:39;7.75;;;5.88;;
48522;SDS011;34315;50.150;11.070;2022-08-20T15:21:40;6.10;;;4.43;;
48522;SDS011;34315;50.150;11.070;2022-08-20T15:26:40;5.30;;;4.30;;
48522;SDS011;34315;50.150;11.070;2022-08-20T15:31:41;6.03;;;4.82;;
48522;SDS011;34315;50.150;11.070;2022-08-20T15:36:42;11.90;;;6.68;;
48522;SDS011;34315;50.150;11.070;2022-08-20T15:41:42;10.57;;;8.20;;
48522;SDS011;34315;50.150;11.070;2022-08-20T15:46:43;11.43;;;8.43;;
48522;SDS011;34315;50.150;11.070;2022-08-20T15:51:46;11.52;;;9.48;;
48522;SDS011;34315;50.150;11.070;2022-08-20T16:07:00;3.58;;;2.10;;
48522;SDS011;34315;50.150;11.070;2022-08-20T16:12:07;3.67;;;2.10;;
48522;SDS011;34315;50.150;11.070;2022-08-20T16:17:16;3.40;;;1.98;;
48522;SDS011;34315;50.150;11.070;2022-08-20T16:22:22;6.85;;;2.20;;
48522;SDS011;34315;50.150;11.070;2022-08-20T16:38:16;3.17;;;2.10;;
48522;SDS011;34315;50.150;11.070;2022-08-20T16:43:15;4.00;;;2.00;;
48522;SDS011;34315;50.150;11.070;2022-08-20T16:48:18;6.13;;;2.30;;
48522;SDS011;34315;50.150;11.070;2022-08-20T16:53:19;3.30;;;2.08;;
48522;SDS011;34315;50.150;11.070;2022-08-20T16:58:20;6.22;;;1.95;;
48522;SDS011;34315;50.150;11.070;2022-08-20T17:03:22;4.90;;;2.28;;
48522;SDS011;34315;50.150;11.070;2022-08-20T17:08:29;5.22;;;3.40;;
48522;SDS011;34315;50.150;11.070;2022-08-20T17:13:32;9.60;;;5.82;;
48522;SDS011;34315;50.150;11.070;2022-08-20T17:18:37;8.88;;;6.43;;
48522;SDS011;34315;50.150;11.070;2022-08-20T17:24:00;14.25;;;7.88;;
48522;SDS011;34315;50.150;11.070;2022-08-20T17:34:20;12.13;;;7.82;;
48522;SDS011;34315;50.150;11.070;2022-08-20T17:39:24;13.68;;;6.50;;
48522;SDS011;34315;50.150;11.070;2022-08-20T17:49:33;11.50;;;6.60;;
48522;SDS011;34315;50.150;11.070;2022-08-20T17:54:43;10.73;;;5.80;;
48522;SDS011;34315;50.150;11.070;2022-08-20T17:59:47;9.27;;;5.95;;
48522;SDS011;34315;50.150;11.070;2022-08-20T18:04:49;8.25;;;5.63;;
48522;SDS011;34315;50.150;11.070;2022-08-20T18:09:57;7.43;;;5.93;;
48522;SDS011;34315;50.150;11.070;2022-08-20T18:15:07;7.32;;;5.40;;
48522;SDS011;34315;50.150;11.070;2022-08-20T18:35:46;9.23;;;6.50;;
48522;SDS011;34315;50.150;11.070;2022-08-20T18:40:46;7.65;;;5.22;;
48522;SDS011;34315;50.150;11.070;2022-08-20T18:45:47;8.88;;;6.07;;
48522;SDS011;34315;50.150;11.070;2022-08-20T18:50:48;8.43;;;6.63;;
48522;SDS011;34315;50.150;11.070;2022-08-20T18:56:02;8.02;;;6.28;;
48522;SDS011;34315;50.150;11.070;2022-08-20T19:01:13;9.80;;;6.30;;
48522;SDS011;34315;50.150;11.070;2022-08-20T19:11:23;8.85;;;6.10;;
48522;SDS011;34315;50.150;11.070;2022-08-20T19:16:33;8.93;;;6.75;;
48522;SDS011;34315;50.150;11.070;2022-08-20T19:21:36;8.23;;;6.53;;
48522;SDS011;34315;50.150;11.070;2022-08-20T19:26:42;8.85;;;6.53;;
48522;SDS011;34315;50.150;11.070;2022-08-20T19:36:51;9.77;;;6.97;;
48522;SDS011;34315;50.150;11.070;2022-08-20T19:42:00;8.10;;;6.60;;
48522;SDS011;34315;50.150;11.070;2022-08-20T19:52:10;7.85;;;6.15;;
48522;SDS011;34315;50.150;11.070;2022-08-20T19:57:15;11.75;;;6.63;;
48522;SDS011;34315;50.150;11.070;2022-08-20T20:02:17;9.25;;;6.53;;
48522;SDS011;34315;50.150;11.070;2022-08-20T20:07:23;9.75;;;6.20;;
48522;SDS011;34315;50.150;11.070;2022-08-20T20:12:25;8.38;;;6.45;;
48522;SDS011;34315;50.150;11.070;2022-08-20T20:17:30;8.32;;;6.28;;
48522;SDS011;34315;50.150;11.070;2022-08-20T20:22:45;10.70;;;7.38;;
48522;SDS011;34315;50.150;11.070;2022-08-20T20:27:48;7.68;;;5.78;;
48522;SDS011;34315;50.150;11.070;2022-08-20T20:32:50;8.25;;;5.10;;
48522;SDS011;34315;50.150;11.070;2022-08-20T20:37:58;9.48;;;5.15;;
48522;SDS011;34315;50.150;11.070;2022-08-20T20:43:06;8.15;;;5.78;;
48522;SDS011;34315;50.150;11.070;2022-08-20T20:48:10;8.38;;;4.88;;
48522;SDS011;34315;50.150;11.070;2022-08-20T20:53:24;7.55;;;5.82;;
48522;SDS011;34315;50.150;11.070;2022-08-20T20:58:32;9.18;;;6.47;;
48522;SDS011;34315;50.150;11.070;2022-08-20T21:03:33;10.15;;;6.60;;
48522;SDS011;34315;50.150;11.070;2022-08-20T21:08:34;9.38;;;6.35;;
48522;SDS011;34315;50.150;11.070;2022-08-20T21:13:34;7.50;;;6.13;;
48522;SDS011;34315;50.150;11.070;2022-08-20T21:18:35;10.65;;;5.95;;
48522;SDS011;34315;50.150;11.070;2022-08-20T21:23:35;7.82;;;5.60;;
48522;SDS011;34315;50.150;11.070;2022-08-20T21:28:36;7.25;;;5.15;;
48522;SDS011;34315;50.150;11.070;2022-08-20T21:33:36;8.57;;;5.63;;
48522;SDS011;34315;50.150;11.070;2022-08-20T21:38:36;8.25;;;6.25;;
48522;SDS011;34315;50.150;11.070;2022-08-20T21:43:37;7.57;;;4.85;;
48522;SDS011;34315;50.150;11.070;2022-08-20T21:48:37;6.85;;;4.95;;
48522;SDS011;34315;50.150;11.070;2022-08-20T21:53:38;8.85;;;5.25;;
48522;SDS011;34315;50.150;11.070;2022-08-20T21:58:39;10.23;;;5.90;;
48522;SDS011;34315;50.150;11.070;2022-08-20T22:03:39;8.23;;;5.55;;
48522;SDS011;34315;50.150;11.070;2022-08-20T22:08:40;8.50;;;5.68;;
48522;SDS011;34315;50.150;11.070;2022-08-20T22:13:41;9.27;;;6.07;;
48522;SDS011;34315;50.150;11.070;2022-08-20T22:18:42;6.95;;;5.35;;
48522;SDS011;34315;50.150;11.070;2022-08-20T22:23:42;6.72;;;5.20;;
48522;SDS011;34315;50.150;11.070;2022-08-20T22:28:43;8.15;;;5.75;;
48522;SDS011;34315;50.150;11.070;2022-08-20T22:33:44;7.40;;;5.28;;
48522;SDS011;34315;50.150;11.070;2022-08-20T22:38:44;9.93;;;6.25;;
48522;SDS011;34315;50.150;11.070;2022-08-20T22:43:45;8.80;;;5.72;;
48522;SDS011;34315;50.150;11.070;2022-08-20T22:48:46;7.85;;;6.22;;
48522;SDS011;34315;50.150;11.070;2022-08-20T22:53:46;8.05;;;6.13;;
48522;SDS011;34315;50.150;11.070;2022-08-20T22:58:47;7.80;;;6.05;;
48522;SDS011;34315;50.150;11.070;2022-08-20T23:03:47;7.45;;;5.50;;
48522;SDS011;34315;50.150;11.070;2022-08-20T23:08:48;8.27;;;6.22;;
48522;SDS011;34315;50.150;11.070;2022-08-20T23:13:48;8.93;;;5.82;;
48522;SDS011;34315;50.150;11.070;2022-08-20T23:18:48;6.93;;;5.40;;
48522;SDS011;34315;50.150;11.070;2022-08-20T23:23:49;8.52;;;6.00;;
48522;SDS011;34315;50.150;11.070;2022-08-20T23:28:49;9.88;;;7.20;;
48522;SDS011;34315;50.150;11.070;2022-08-20T23:33:50;9.25;;;6.85;;
48522;SDS011;34315;50.150;11.070;2022-08-20T23:38:51;8.63;;;6.22;;
48522;SDS011;34315;50.150;11.070;2022-08-20T23:43:51;8.55;;;6.57;;
48522;SDS011;34315;50.150;11.070;2022-08-20T23:48:52;11.30;;;6.65;;
48522;SDS011;34315;50.150;11.070;2022-08-20T23:53:52;11.35;;;6.88;;
48522;SDS011;34315;50.150;11.070;2022-08-20T23:58:53;9.38;;;7.00;;
